Time;durP1;ratioP1;P1;durP2;ratioP2;P2;SDS_P1;SDS_P2;PMS_P1;PMS_P2;Temp;Humidity;BMP_temperature;BMP_pressure;BME280_temperature;BME280_humidity;BME280_pressure;Samples;Min_cycle;Max_cycle;Signal;HPM_P1;HPM_P2
2022/12/06 00:02:11;;;;;;;18.93;10.17;;;3.00;99.90;;;;;;5091831;28;20186;-78
2022/12/06 00:04:38;;;;;;;18.47;10.30;;;2.90;99.90;;;;;;5056344;28;20207;-79
2022/12/06 00:07:06;;;;;;;17.40;9.60;;;2.90;99.90;;;;;;5071123;28;20240;-79
2022/12/06 00:09:33;;;;;;;18.37;9.67;;;3.00;99.90;;;;;;5069461;28;20195;-78
2022/12/06 00:12:00;;;;;;;16.37;9.40;;;3.00;99.90;;;;;;5053858;28;20202;-79
2022/12/06 00:14:27;;;;;;;16.23;9.23;;;2.90;99.90;;;;;;5054390;28;20252;-79
2022/12/06 00:16:54;;;;;;;16.13;10.20;;;3.00;99.90;;;;;;5053566;28;20271;-79
2022/12/06 00:19:23;;;;;;;16.20;9.60;;;2.90;99.90;;;;;;5054404;28;20207;-79
2022/12/06 00:21:50;;;;;;;16.10;9.47;;;2.90;99.90;;;;;;5058611;28;20198;-79
2022/12/06 00:24:20;;;;;;;17.53;8.93;;;2.90;99.90;;;;;;5069539;28;20205;-79
2022/12/06 00:26:48;;;;;;;17.57;9.20;;;2.90;99.90;;;;;;5059190;28;20225;-78
2022/12/06 00:29:17;;;;;;;19.63;9.70;;;2.90;99.90;;;;;;5065729;28;20656;-79
2022/12/06 00:31:44;;;;;;;14.30;8.17;;;2.90;99.90;;;;;;5063887;28;20198;-79
2022/12/06 00:34:11;;;;;;;16.60;9.10;;;2.90;99.90;;;;;;5071877;28;20249;-78
2022/12/06 00:36:40;;;;;;;16.10;9.70;;;2.90;99.90;;;;;;5072473;28;20226;-78
2022/12/06 00:39:09;;;;;;;15.37;9.03;;;2.90;99.90;;;;;;5056780;28;20194;-79
2022/12/06 00:41:37;;;;;;;17.73;10.23;;;2.90;99.90;;;;;;5073060;28;20210;-79
2022/12/06 00:44:04;;;;;;;16.60;9.13;;;2.90;99.90;;;;;;5053047;28;20199;-79
2022/12/06 00:46:32;;;;;;;17.20;10.23;;;2.90;99.90;;;;;;5054335;28;20663;-79
2022/12/06 00:49:01;;;;;;;17.70;9.97;;;2.90;99.90;;;;;;5054209;28;20197;-79
2022/12/06 00:51:29;;;;;;;17.23;9.83;;;2.90;99.90;;;;;;5061781;28;20642;-79
2022/12/06 00:53:57;;;;;;;19.43;9.93;;;2.90;99.90;;;;;;5063154;28;20274;-79
2022/12/06 00:56:24;;;;;;;16.73;10.23;;;2.90;99.90;;;;;;5070623;28;20230;-79
2022/12/06 00:58:53;;;;;;;16.90;9.67;;;2.90;99.90;;;;;;5068733;28;20198;-79
2022/12/06 01:01:21;;;;;;;18.93;10.50;;;3.00;99.90;;;;;;5053076;28;20313;-79
2022/12/06 01:03:50;;;;;;;16.87;9.63;;;2.90;99.90;;;;;;5055744;28;20207;-79
2022/12/06 01:06:19;;;;;;;16.43;9.93;;;2.90;99.90;;;;;;5064327;28;20220;-79
2022/12/06 01:08:46;;;;;;;18.50;10.03;;;2.90;99.90;;;;;;5065862;28;20203;-79
2022/12/06 01:11:15;;;;;;;17.53;9.40;;;2.90;99.90;;;;;;5067191;28;20198;-79
2022/12/06 01:13:42;;;;;;;18.50;10.53;;;2.90;99.90;;;;;;5073428;28;20219;-79
2022/12/06 01:16:12;;;;;;;19.27;10.67;;;2.90;99.90;;;;;;5056929;28;20210;-79
2022/12/06 01:18:39;;;;;;;17.90;10.30;;;2.90;99.90;;;;;;5066866;28;20202;-79
2022/12/06 01:21:07;;;;;;;18.33;9.90;;;2.90;99.90;;;;;;5076877;28;20198;-79
2022/12/06 01:23:34;;;;;;;19.33;10.57;;;2.90;99.90;;;;;;5075909;28;20208;-79
2022/12/06 01:26:01;;;;;;;17.63;9.43;;;2.90;99.90;;;;;;5076459;28;20735;-79
2022/12/06 01:28:28;;;;;;;17.47;10.23;;;2.90;99.90;;;;;;5075461;28;20218;-79
2022/12/06 01:30:54;;;;;;;16.07;9.20;;;2.90;99.90;;;;;;5071973;28;20670;-79
2022/12/06 01:33:23;;;;;;;15.03;8.93;;;3.00;99.90;;;;;;5056125;28;20241;-79
2022/12/06 01:35:50;;;;;;;18.57;9.83;;;3.00;99.90;;;;;;5068371;28;20222;-79
2022/12/06 01:38:16;;;;;;;21.00;11.40;;;2.90;99.90;;;;;;5073911;28;20229;-79
2022/12/06 01:40:45;;;;;;;16.47;9.83;;;2.90;99.90;;;;;;5073312;28;20223;-79
2022/12/06 01:43:33;;;;;;;17.80;10.30;;;3.00;99.90;;;;;;5082807;28;20198;-78
2022/12/06 01:46:05;;;;;;;19.03;10.47;;;2.90;99.90;;;;;;5068579;28;20222;-78
2022/12/06 01:48:34;;;;;;;18.00;10.33;;;2.90;99.90;;;;;;5073755;28;20546;-79
2022/12/06 01:51:01;;;;;;;17.10;11.43;;;2.90;99.90;;;;;;5071156;28;20202;-79
2022/12/06 01:53:29;;;;;;;17.80;9.50;;;2.90;99.90;;;;;;5054908;28;20583;-79
2022/12/06 01:55:55;;;;;;;16.87;9.87;;;2.90;99.90;;;;;;5061711;28;20594;-79
2022/12/06 01:58:27;;;;;;;16.47;9.33;;;2.90;99.90;;;;;;5059138;28;20210;-78
2022/12/06 02:00:54;;;;;;;16.00;9.20;;;2.90;99.90;;;;;;5056480;28;20213;-79
2022/12/06 02:03:25;;;;;;;17.83;9.40;;;2.90;99.90;;;;;;5055008;28;20198;-79
2022/12/06 02:05:55;;;;;;;16.07;8.90;;;2.90;99.90;;;;;;5054636;28;20593;-79
2022/12/06 02:08:22;;;;;;;16.57;9.17;;;2.90;99.90;;;;;;5071506;28;20674;-79
2022/12/06 02:10:48;;;;;;;17.13;9.43;;;2.90;99.90;;;;;;5069486;28;20209;-79
2022/12/06 02:13:15;;;;;;;17.30;10.43;;;2.90;99.90;;;;;;5066623;28;20210;-79
2022/12/06 02:15:53;;;;;;;16.50;9.10;;;2.90;99.90;;;;;;5071021;28;20199;-79
2022/12/06 02:18:29;;;;;;;14.30;8.13;;;2.90;99.90;;;;;;5072479;28;20198;-79
2022/12/06 02:21:10;;;;;;;18.17;8.87;;;2.90;99.90;;;;;;5053154;28;20209;-79
2022/12/06 02:23:58;;;;;;;17.63;9.23;;;2.90;99.90;;;;;;5072689;28;20204;-79
2022/12/06 02:26:34;;;;;;;16.07;8.97;;;2.90;99.90;;;;;;5071164;28;20225;-79
2022/12/06 02:29:28;;;;;;;17.07;8.70;;;2.90;99.90;;;;;;5086729;28;20208;-79
2022/12/06 02:32:00;;;;;;;15.37;8.87;;;2.90;99.90;;;;;;5069027;28;20202;-79
2022/12/06 02:34:34;;;;;;;17.03;9.00;;;2.90;99.90;;;;;;5066671;28;20234;-79
2022/12/06 02:37:09;;;;;;;16.50;9.40;;;3.00;99.90;;;;;;5073378;28;20210;-79
2022/12/06 02:39:42;;;;;;;17.60;9.13;;;3.00;99.90;;;;;;5069383;28;20200;-79
2022/12/06 02:42:14;;;;;;;16.37;9.30;;;2.90;99.90;;;;;;5072586;28;20269;-79
2022/12/06 02:44:45;;;;;;;15.73;9.13;;;3.00;99.90;;;;;;5073235;28;20202;-79
2022/12/06 02:47:15;;;;;;;15.97;9.53;;;2.90;99.90;;;;;;5074762;28;20236;-78
2022/12/06 02:49:48;;;;;;;17.30;9.47;;;3.00;99.90;;;;;;5073971;28;20225;-78
2022/12/06 02:52:16;;;;;;;15.50;8.67;;;2.90;99.90;;;;;;5072716;28;20255;-78
2022/12/06 02:54:46;;;;;;;18.00;10.10;;;3.00;99.90;;;;;;5060807;28;20688;-79
2022/12/06 02:57:12;;;;;;;16.27;9.23;;;2.90;99.90;;;;;;5075067;28;20685;-79
2022/12/06 02:59:39;;;;;;;14.90;8.93;;;2.90;99.90;;;;;;5059215;28;20199;-79
2022/12/06 03:02:11;;;;;;;18.13;9.07;;;2.90;99.90;;;;;;5068828;28;20198;-79
2022/12/06 03:04:57;;;;;;;14.53;8.70;;;2.90;99.90;;;;;;5070085;28;20204;-79
2022/12/06 03:07:43;;;;;;;18.80;9.70;;;2.90;99.90;;;;;;5071017;28;20251;-79
2022/12/06 03:10:27;;;;;;;17.17;8.63;;;2.90;99.90;;;;;;5065063;28;20195;-78
2022/12/06 03:13:01;;;;;;;17.60;10.33;;;3.00;99.90;;;;;;5055054;28;20199;-78
2022/12/06 03:15:39;;;;;;;15.60;9.53;;;3.00;99.90;;;;;;5071935;28;20206;-79
2022/12/06 03:18:13;;;;;;;17.03;9.63;;;2.90;99.90;;;;;;5052783;28;20203;-79
2022/12/06 03:20:46;;;;;;;15.60;8.77;;;2.90;99.90;;;;;;5052706;28;20201;-79
2022/12/06 03:23:16;;;;;;;14.87;9.00;;;2.90;99.90;;;;;;5059793;28;20198;-79
2022/12/06 03:25:46;;;;;;;15.93;8.30;;;2.90;99.90;;;;;;5063821;28;20199;-79
2022/12/06 03:28:15;;;;;;;16.30;9.17;;;2.90;99.90;;;;;;5060169;28;20203;-79
2022/12/06 03:30:47;;;;;;;16.00;8.93;;;2.80;99.90;;;;;;5054377;28;20203;-79
2022/12/06 03:33:16;;;;;;;15.93;8.77;;;2.80;99.90;;;;;;5059591;28;20220;-78
2022/12/06 03:35:46;;;;;;;15.77;8.97;;;2.80;99.90;;;;;;5069753;28;20596;-79
2022/12/06 03:38:18;;;;;;;16.00;8.43;;;2.80;99.90;;;;;;5072537;28;20217;-79
2022/12/06 03:40:49;;;;;;;13.77;8.30;;;2.90;99.90;;;;;;5062322;28;20766;-79
2022/12/06 03:43:16;;;;;;;13.87;8.33;;;2.80;99.90;;;;;;5071014;28;20197;-79
2022/12/06 03:45:49;;;;;;;15.03;8.60;;;2.90;99.90;;;;;;5068048;28;20217;-79
2022/12/06 03:48:21;;;;;;;13.30;8.60;;;2.80;99.90;;;;;;5063637;28;20203;-79
2022/12/06 03:50:54;;;;;;;16.93;9.00;;;2.80;99.90;;;;;;5054927;28;20218;-78
2022/12/06 03:53:21;;;;;;;15.13;7.90;;;2.80;99.90;;;;;;5057624;28;20230;-79
2022/12/06 03:55:48;;;;;;;14.67;8.30;;;2.80;99.90;;;;;;5065795;28;20720;-79
2022/12/06 03:58:15;;;;;;;13.20;8.10;;;2.80;99.90;;;;;;5057184;28;20580;-79
2022/12/06 04:00:42;;;;;;;13.57;7.67;;;2.80;99.90;;;;;;5072387;28;20689;-79
2022/12/06 04:03:09;;;;;;;13.50;7.60;;;2.80;99.90;;;;;;5071532;28;20205;-79
2022/12/06 04:05:35;;;;;;;12.40;7.27;;;2.80;99.90;;;;;;5086023;28;20818;-79
2022/12/06 04:08:04;;;;;;;14.90;8.53;;;2.80;99.90;;;;;;5076368;28;20226;-79
2022/12/06 04:10:31;;;;;;;12.60;6.77;;;2.80;99.90;;;;;;5068219;28;20198;-78
2022/12/06 04:13:00;;;;;;;11.30;6.77;;;2.80;99.90;;;;;;5074206;28;20200;-79
2022/12/06 04:15:29;;;;;;;11.73;7.13;;;2.80;99.90;;;;;;5059988;28;20674;-80
2022/12/06 04:18:12;;;;;;;12.23;6.83;;;2.80;99.90;;;;;;5059804;28;20199;-79
2022/12/06 04:23:33;;;;;;;10.80;6.60;;;2.80;99.90;;;;;;5071054;28;20198;-79
2022/12/06 04:25:59;;;;;;;9.80;6.27;;;2.80;99.90;;;;;;5054229;28;20220;-78
2022/12/06 04:39:26;;;;;;;12.50;6.50;;;2.70;99.90;;;;;;5073239;28;20205;-79
2022/12/06 04:44:37;;;;;;;12.10;6.90;;;2.70;99.90;;;;;;5074661;28;20716;-78
2022/12/06 04:47:04;;;;;;;9.97;6.60;;;2.70;99.90;;;;;;5070227;28;20224;-78
2022/12/06 04:49:31;;;;;;;10.00;6.80;;;2.70;99.90;;;;;;5073426;28;20198;-79
2022/12/06 04:51:58;;;;;;;9.83;6.27;;;2.70;99.90;;;;;;5070637;28;20199;-79
2022/12/06 04:54:28;;;;;;;9.93;6.00;;;2.70;99.90;;;;;;5073693;28;20218;-78
2022/12/06 04:56:55;;;;;;;10.40;6.00;;;2.80;99.90;;;;;;5074205;28;20221;-78
2022/12/06 04:59:22;;;;;;;9.33;5.87;;;2.80;99.90;;;;;;5066018;28;20211;-79
2022/12/06 05:01:49;;;;;;;9.43;5.97;;;2.70;99.90;;;;;;5055992;28;20202;-78
2022/12/06 05:04:16;;;;;;;11.00;6.60;;;2.70;99.90;;;;;;5055655;28;20207;-78
2022/12/06 05:06:42;;;;;;;9.40;6.40;;;2.80;99.90;;;;;;5054314;28;20680;-79
2022/12/06 05:09:09;;;;;;;11.23;6.50;;;2.70;99.90;;;;;;5056200;28;20217;-79
2022/12/06 05:11:37;;;;;;;11.63;6.47;;;2.80;99.90;;;;;;5053618;28;20211;-79
2022/12/06 05:14:04;;;;;;;10.43;6.67;;;2.80;99.90;;;;;;5054001;28;20231;-79
2022/12/06 05:16:31;;;;;;;9.10;6.60;;;2.80;99.90;;;;;;5055318;28;20230;-79
2022/12/06 05:18:58;;;;;;;10.47;6.13;;;2.80;99.90;;;;;;5054166;28;20214;-79
2022/12/06 05:21:25;;;;;;;8.63;5.83;;;2.80;99.90;;;;;;5054925;28;20207;-79
2022/12/06 05:23:54;;;;;;;11.43;6.37;;;2.80;99.90;;;;;;5059515;28;20639;-79
2022/12/06 05:26:22;;;;;;;9.63;6.03;;;2.80;99.90;;;;;;5074365;28;20254;-79
2022/12/06 05:28:51;;;;;;;9.13;5.80;;;2.80;99.90;;;;;;5071758;28;20202;-79
2022/12/06 05:31:18;;;;;;;8.80;5.53;;;2.80;99.90;;;;;;5074714;28;20213;-78
2022/12/06 05:33:46;;;;;;;10.10;5.77;;;2.80;99.90;;;;;;5055006;28;20248;-79
2022/12/06 05:36:14;;;;;;;8.30;5.60;;;2.80;99.90;;;;;;5054953;28;20225;-78
2022/12/06 05:38:41;;;;;;;8.17;5.50;;;2.80;99.90;;;;;;5055844;28;20582;-78
2022/12/06 05:41:08;;;;;;;8.70;5.90;;;2.80;99.90;;;;;;5055638;28;20297;-79
2022/12/06 05:43:35;;;;;;;9.13;5.73;;;2.80;99.90;;;;;;5055988;28;20679;-79
2022/12/06 05:46:04;;;;;;;8.87;5.33;;;2.90;99.90;;;;;;5054771;28;20249;-79
2022/12/06 05:48:31;;;;;;;8.97;6.07;;;2.80;99.90;;;;;;5055466;28;20221;-79
2022/12/06 05:50:58;;;;;;;8.40;5.70;;;2.80;99.90;;;;;;5060654;28;20744;-78
2022/12/06 05:53:25;;;;;;;7.67;5.60;;;2.90;99.90;;;;;;5059394;28;20206;-79
2022/12/06 05:55:52;;;;;;;9.17;5.33;;;2.90;99.90;;;;;;5060517;28;20237;-79
2022/12/06 05:58:19;;;;;;;8.53;5.57;;;2.90;99.90;;;;;;5060445;28;20297;-79
2022/12/06 06:00:47;;;;;;;9.37;5.43;;;2.80;99.90;;;;;;5057109;28;20714;-79
2022/12/06 06:03:16;;;;;;;10.27;5.73;;;2.90;99.90;;;;;;5077972;28;20659;-79
2022/12/06 06:05:48;;;;;;;7.03;5.03;;;2.80;99.90;;;;;;5074759;28;20199;-79
2022/12/06 06:08:15;;;;;;;7.57;5.20;;;2.80;99.90;;;;;;5077726;28;20693;-78
2022/12/06 06:10:42;;;;;;;6.57;5.00;;;2.80;99.90;;;;;;5074700;28;20229;-79
2022/12/06 06:13:09;;;;;;;7.43;5.40;;;2.90;99.90;;;;;;5056932;28;20202;-79
2022/12/06 06:15:36;;;;;;;8.30;5.53;;;2.90;99.90;;;;;;5059741;28;20226;-79
2022/12/06 06:18:03;;;;;;;8.50;5.43;;;2.90;99.90;;;;;;5059269;28;20595;-79
2022/12/06 06:20:32;;;;;;;7.57;5.10;;;2.90;99.90;;;;;;5059875;28;20691;-79
2022/12/06 06:22:58;;;;;;;7.47;5.30;;;2.90;99.90;;;;;;5060625;28;20579;-79
2022/12/06 06:25:25;;;;;;;10.87;5.63;;;2.80;99.90;;;;;;5060413;28;20209;-78
2022/12/06 06:27:53;;;;;;;10.83;6.30;;;2.90;99.90;;;;;;5059193;28;20203;-79
2022/12/06 06:30:20;;;;;;;11.57;6.20;;;2.90;99.90;;;;;;5068548;28;20635;-78
2022/12/06 06:32:47;;;;;;;9.60;6.20;;;2.90;99.90;;;;;;5066572;28;20195;-79
2022/12/06 06:35:14;;;;;;;11.77;7.23;;;2.90;99.90;;;;;;5067567;28;20595;-79
2022/12/06 06:37:42;;;;;;;7.90;5.67;;;2.90;99.90;;;;;;5067443;28;20218;-79
2022/12/06 06:40:10;;;;;;;7.57;5.53;;;2.90;99.90;;;;;;5068257;28;20198;-79
2022/12/06 06:42:37;;;;;;;10.87;6.53;;;2.90;99.90;;;;;;5066571;28;20194;-79
2022/12/06 06:45:05;;;;;;;11.93;7.00;;;2.90;99.90;;;;;;5068280;28;20205;-81
2022/12/06 06:47:32;;;;;;;14.33;7.67;;;2.90;99.90;;;;;;5076427;28;20298;-81
2022/12/06 06:49:59;;;;;;;11.90;7.00;;;2.90;99.90;;;;;;5074037;28;20203;-81
2022/12/06 06:52:26;;;;;;;8.40;5.87;;;3.00;99.90;;;;;;5077267;28;20206;-81
2022/12/06 06:54:54;;;;;;;7.87;5.33;;;3.00;99.90;;;;;;5071389;28;20777;-81
2022/12/06 06:57:20;;;;;;;7.83;5.03;;;3.00;99.90;;;;;;5068471;28;20226;-81
2022/12/06 06:59:47;;;;;;;7.73;5.17;;;3.00;99.90;;;;;;5067962;28;20198;-81
2022/12/06 07:02:16;;;;;;;8.77;5.10;;;3.00;99.90;;;;;;5072878;28;20194;-81
2022/12/06 07:04:43;;;;;;;8.20;4.83;;;3.10;99.90;;;;;;5074091;28;20203;-81
2022/12/06 07:07:11;;;;;;;10.50;5.83;;;3.10;99.90;;;;;;5076923;28;20218;-80
2022/12/06 07:09:38;;;;;;;6.43;4.63;;;3.10;99.90;;;;;;5077503;28;20210;-81
2022/12/06 07:12:06;;;;;;;6.47;5.00;;;3.10;99.90;;;;;;5068412;28;20209;-81
2022/12/06 07:14:34;;;;;;;9.33;6.10;;;3.10;99.90;;;;;;5070281;28;20224;-81
2022/12/06 07:17:00;;;;;;;10.93;6.20;;;3.10;99.90;;;;;;5070659;28;20219;-80
2022/12/06 07:19:27;;;;;;;8.77;6.00;;;3.10;99.90;;;;;;5076207;28;20208;-80
2022/12/06 07:21:54;;;;;;;7.77;5.43;;;3.10;99.90;;;;;;5072750;28;20207;-81
2022/12/06 07:24:21;;;;;;;8.43;5.30;;;3.10;99.90;;;;;;5069411;28;20231;-81
2022/12/06 07:26:48;;;;;;;8.13;4.97;;;3.10;99.90;;;;;;5072627;28;20238;-80
2022/12/06 07:29:16;;;;;;;9.73;5.67;;;3.20;99.90;;;;;;5068866;28;20313;-80
2022/12/06 07:31:43;;;;;;;8.50;5.20;;;3.20;99.90;;;;;;5076455;28;20234;-80
2022/12/06 07:34:10;;;;;;;7.80;5.00;;;3.20;99.90;;;;;;5073663;28;20199;-80
2022/12/06 07:36:37;;;;;;;7.50;5.10;;;3.30;99.90;;;;;;5070331;28;20226;-81
2022/12/06 07:39:04;;;;;;;6.77;4.67;;;3.20;99.90;;;;;;5072334;28;20195;-80
2022/12/06 07:47:06;;;;;;;5.73;4.40;;;3.20;99.90;;;;;;5055757;28;20222;-81
2022/12/06 07:49:33;;;;;;;8.53;4.73;;;3.20;99.90;;;;;;5064589;28;20206;-81
2022/12/06 07:52:01;;;;;;;8.77;5.17;;;3.20;99.90;;;;;;5065988;28;20205;-81
2022/12/06 07:54:28;;;;;;;9.00;5.57;;;3.20;99.90;;;;;;5062171;28;20250;-81
2022/12/06 07:56:56;;;;;;;8.53;5.17;;;3.30;99.90;;;;;;5069027;28;20286;-81
2022/12/06 07:59:24;;;;;;;10.33;5.87;;;3.30;99.90;;;;;;5070302;28;20218;-81
2022/12/06 08:01:52;;;;;;;11.37;5.23;;;3.30;99.90;;;;;;5070154;28;20294;-81
2022/12/06 08:04:19;;;;;;;10.53;5.40;;;3.30;99.90;;;;;;5077758;28;20206;-81
2022/12/06 08:06:47;;;;;;;12.93;5.97;;;3.40;99.90;;;;;;5067946;28;20234;-82
2022/12/06 08:09:13;;;;;;;9.80;4.90;;;3.40;99.90;;;;;;5069547;28;20286;-82
2022/12/06 08:11:40;;;;;;;13.37;6.43;;;3.40;99.90;;;;;;5073747;28;20297;-81
2022/12/06 08:14:07;;;;;;;13.27;6.63;;;3.40;99.90;;;;;;5073948;28;20248;-81
2022/12/06 08:16:35;;;;;;;12.93;5.40;;;3.40;99.90;;;;;;5068902;28;20577;-81
2022/12/06 08:19:03;;;;;;;11.40;5.33;;;3.40;99.90;;;;;;5068497;28;20205;-82
2022/12/06 08:21:30;;;;;;;9.03;5.90;;;3.40;99.90;;;;;;5064782;28;20198;-81
2022/12/06 08:23:56;;;;;;;11.03;5.60;;;3.50;99.90;;;;;;5071730;28;20705;-81
2022/12/06 08:26:23;;;;;;;12.57;5.73;;;3.50;99.90;;;;;;5067209;28;20297;-80
2022/12/06 08:28:51;;;;;;;11.47;5.77;;;3.50;99.90;;;;;;5069105;28;20562;-80
2022/12/06 08:31:20;;;;;;;16.50;8.10;;;3.50;99.90;;;;;;5067132;28;20203;-80
2022/12/06 08:33:48;;;;;;;14.73;8.07;;;3.60;99.90;;;;;;5066571;28;20266;-81
2022/12/06 08:36:21;;;;;;;15.10;6.70;;;3.60;99.90;;;;;;5071185;28;20290;-83
2022/12/06 08:38:50;;;;;;;18.83;8.30;;;3.70;99.90;;;;;;5076262;28;20278;-82
2022/12/06 08:44:05;;;;;;;16.67;8.33;;;3.90;99.90;;;;;;5047555;28;20198;-81
2022/12/06 08:46:34;;;;;;;16.67;7.10;;;3.90;99.90;;;;;;5066700;28;20632;-82
2022/12/06 08:49:02;;;;;;;21.57;7.97;;;3.90;99.90;;;;;;5066283;28;20215;-81
2022/12/06 08:51:30;;;;;;;20.23;9.33;;;4.00;99.90;;;;;;5066512;28;20203;-81
2022/12/06 08:53:57;;;;;;;18.90;8.83;;;3.90;99.90;;;;;;5069679;28;20274;-81
2022/12/06 08:56:24;;;;;;;18.87;8.70;;;4.00;99.90;;;;;;5068738;28;20583;-80
2022/12/06 08:58:52;;;;;;;18.93;8.70;;;4.00;99.90;;;;;;5063738;28;20225;-81
2022/12/06 09:01:21;;;;;;;20.37;9.47;;;4.10;99.90;;;;;;5062385;28;20199;-81
2022/12/06 09:03:48;;;;;;;23.30;9.83;;;4.10;99.90;;;;;;5067927;28;20214;-81
2022/12/06 09:06:17;;;;;;;22.00;9.47;;;4.10;99.90;;;;;;5067008;28;20223;-81
2022/12/06 09:08:45;;;;;;;24.87;9.30;;;4.10;99.90;;;;;;5073995;28;20199;-81
2022/12/06 09:11:13;;;;;;;22.10;9.53;;;4.10;99.90;;;;;;5071132;28;20203;-81
2022/12/06 09:13:41;;;;;;;20.63;9.63;;;4.10;99.90;;;;;;5064592;28;20199;-81
2022/12/06 09:16:09;;;;;;;24.13;8.73;;;4.10;99.90;;;;;;5074909;28;20232;-81
2022/12/06 09:18:37;;;;;;;20.17;9.37;;;4.10;99.90;;;;;;5062785;28;20234;-81
2022/12/06 09:21:06;;;;;;;20.97;8.47;;;4.10;99.90;;;;;;5068766;28;20195;-82
2022/12/06 09:23:35;;;;;;;20.50;9.43;;;4.10;99.90;;;;;;5066702;28;20202;-81
2022/12/06 09:26:03;;;;;;;22.20;9.77;;;4.20;99.90;;;;;;5070954;28;20892;-81
2022/12/06 09:28:31;;;;;;;19.90;9.67;;;4.20;99.90;;;;;;5072471;28;20290;-81
2022/12/06 09:30:58;;;;;;;22.97;10.30;;;4.20;99.90;;;;;;5073258;28;20554;-82
2022/12/06 09:33:25;;;;;;;20.63;9.60;;;4.20;99.90;;;;;;5072029;28;20209;-81
2022/12/06 09:35:52;;;;;;;20.80;9.73;;;4.20;99.90;;;;;;5070193;28;20229;-81
2022/12/06 09:38:21;;;;;;;19.90;10.30;;;4.20;99.90;;;;;;5070761;28;20206;-81
2022/12/06 09:40:59;;;;;;;21.00;10.20;;;4.20;99.90;;;;;;5077876;28;20225;-81
2022/12/06 09:43:39;;;;;;;24.23;11.13;;;4.20;99.90;;;;;;5073582;28;20270;-81
2022/12/06 09:46:25;;;;;;;23.60;10.97;;;4.30;99.90;;;;;;5075461;28;20214;-82
2022/12/06 09:49:12;;;;;;;26.13;10.47;;;4.30;99.90;;;;;;5068267;28;20689;-82
2022/12/06 09:51:59;;;;;;;25.90;9.83;;;4.30;99.90;;;;;;5072411;28;20198;-81
2022/12/06 09:54:39;;;;;;;26.20;11.23;;;4.30;99.90;;;;;;5071040;28;20227;-82
2022/12/06 09:57:12;;;;;;;31.07;11.27;;;4.40;99.90;;;;;;5070784;28;20228;-81
2022/12/06 09:59:48;;;;;;;24.47;11.00;;;4.40;99.90;;;;;;5072851;28;20198;-81
2022/12/06 10:02:34;;;;;;;26.93;11.63;;;4.40;99.90;;;;;;5069961;28;20202;-81
2022/12/06 10:05:15;;;;;;;25.90;11.13;;;4.40;99.90;;;;;;5073976;28;20237;-81
2022/12/06 10:07:50;;;;;;;26.70;11.70;;;4.40;99.90;;;;;;5069765;28;20222;-80
2022/12/06 10:10:26;;;;;;;24.80;10.70;;;4.40;99.90;;;;;;5071309;28;20209;-81
2022/12/06 10:13:04;;;;;;;25.63;10.43;;;4.40;99.90;;;;;;5076954;28;20227;-81
2022/12/06 10:15:45;;;;;;;26.60;12.70;;;4.50;99.90;;;;;;5079572;28;20226;-81
2022/12/06 10:18:29;;;;;;;26.43;13.60;;;4.50;99.90;;;;;;5075059;28;20230;-80
2022/12/06 10:21:10;;;;;;;27.17;12.90;;;4.50;99.90;;;;;;5076966;28;20230;-80
2022/12/06 10:23:47;;;;;;;30.37;13.83;;;4.50;99.90;;;;;;5076478;28;20228;-80
2022/12/06 10:26:17;;;;;;;28.73;14.27;;;4.50;99.90;;;;;;5073103;28;20223;-81
2022/12/06 10:28:47;;;;;;;32.10;16.07;;;4.60;99.90;;;;;;5074236;28;20230;-81
2022/12/06 10:31:25;;;;;;;35.03;15.97;;;4.60;99.90;;;;;;5081989;28;20202;-81
2022/12/06 10:33:55;;;;;;;32.53;14.47;;;4.60;99.90;;;;;;5070253;28;20214;-81
2022/12/06 10:36:43;;;;;;;29.90;14.10;;;4.60;99.90;;;;;;5080378;28;20230;-81
2022/12/06 10:39:18;;;;;;;32.83;14.20;;;4.60;99.90;;;;;;5073246;28;20290;-81
2022/12/06 10:41:52;;;;;;;30.50;14.37;;;4.60;99.90;;;;;;5069914;28;20253;-81
2022/12/06 10:44:29;;;;;;;31.33;15.30;;;4.60;99.90;;;;;;5078569;28;20205;-81
2022/12/06 10:47:03;;;;;;;28.73;14.20;;;4.60;99.90;;;;;;5072361;28;20585;-81
2022/12/06 10:49:40;;;;;;;26.17;12.00;;;4.70;99.90;;;;;;5066139;28;20194;-81
2022/12/06 10:52:20;;;;;;;25.37;12.23;;;4.60;99.90;;;;;;5073599;28;20202;-81
2022/12/06 10:54:55;;;;;;;30.10;13.40;;;4.70;99.90;;;;;;5076741;28;20233;-80
2022/12/06 10:57:31;;;;;;;26.73;12.43;;;4.60;99.90;;;;;;5067658;28;20236;-81
2022/12/06 11:00:03;;;;;;;30.57;13.40;;;4.60;99.90;;;;;;5078584;28;20209;-81
2022/12/06 11:02:37;;;;;;;26.67;12.33;;;4.70;99.90;;;;;;5070770;28;20203;-82
2022/12/06 11:05:14;;;;;;;28.87;13.53;;;4.70;99.90;;;;;;5067551;28;20301;-80
2022/12/06 11:07:44;;;;;;;26.17;12.17;;;4.70;99.90;;;;;;5075186;28;20475;-81
2022/12/06 11:10:18;;;;;;;25.43;11.43;;;4.60;99.90;;;;;;5074815;28;20198;-80
2022/12/06 11:12:45;;;;;;;26.03;10.20;;;4.60;99.90;;;;;;5069685;28;20681;-81
2022/12/06 11:15:18;;;;;;;25.40;10.43;;;4.60;99.90;;;;;;5077105;28;20226;-81
2022/12/06 11:17:49;;;;;;;24.90;12.00;;;4.70;99.90;;;;;;5073124;28;20306;-80
2022/12/06 11:20:25;;;;;;;22.17;10.50;;;4.80;99.90;;;;;;5069000;28;20203;-80
2022/12/06 11:23:04;;;;;;;25.87;11.50;;;4.80;99.90;;;;;;5070597;28;20206;-80
2022/12/06 11:25:39;;;;;;;21.83;10.07;;;4.70;99.90;;;;;;5078623;28;20669;-80
2022/12/06 11:28:20;;;;;;;23.10;11.13;;;4.80;99.90;;;;;;5066659;28;20210;-80
2022/12/06 11:30:49;;;;;;;22.53;11.67;;;4.80;99.90;;;;;;5069079;28;20292;-81
2022/12/06 11:33:17;;;;;;;24.13;11.30;;;4.80;99.90;;;;;;5072878;28;20199;-80
2022/12/06 11:35:46;;;;;;;19.20;9.20;;;4.70;99.90;;;;;;5069874;28;20215;-80
2022/12/06 11:38:15;;;;;;;21.30;9.70;;;4.80;99.90;;;;;;5074666;28;20412;-80
2022/12/06 11:40:45;;;;;;;20.93;9.47;;;4.90;99.90;;;;;;5073776;28;20674;-80
2022/12/06 11:43:18;;;;;;;17.20;8.10;;;4.80;99.90;;;;;;5072225;28;20205;-81
2022/12/06 11:45:48;;;;;;;17.87;8.33;;;4.90;99.90;;;;;;5071063;28;20205;-81
2022/12/06 11:48:18;;;;;;;18.93;7.87;;;4.90;99.90;;;;;;5068042;28;20203;-81
2022/12/06 11:50:47;;;;;;;18.97;8.27;;;4.90;99.90;;;;;;5072397;28;20210;-81
2022/12/06 11:53:21;;;;;;;19.13;9.07;;;5.00;99.90;;;;;;5066896;28;20287;-81
2022/12/06 11:55:52;;;;;;;18.50;8.43;;;4.90;99.90;;;;;;5071722;28;20269;-82
2022/12/06 11:58:26;;;;;;;19.07;8.50;;;4.90;99.90;;;;;;5075952;28;20226;-82
2022/12/06 12:01:01;;;;;;;17.70;7.30;;;4.90;99.90;;;;;;5064611;28;20198;-82
2022/12/06 12:03:30;;;;;;;17.97;7.97;;;4.90;99.90;;;;;;5075520;28;20221;-82
2022/12/06 12:06:18;;;;;;;14.27;6.50;;;4.90;99.90;;;;;;5072491;28;20230;-82
2022/12/06 12:08:55;;;;;;;21.20;10.30;;;4.80;99.90;;;;;;5064035;28;20207;-82
2022/12/06 12:11:25;;;;;;;18.43;7.40;;;4.80;99.90;;;;;;5075556;28;20212;-81
2022/12/06 12:13:55;;;;;;;17.27;8.17;;;4.80;99.90;;;;;;5068994;28;20222;-82
2022/12/06 12:16:26;;;;;;;16.00;7.00;;;4.90;99.90;;;;;;5070106;28;20231;-81
2022/12/06 12:19:01;;;;;;;15.73;7.13;;;4.80;99.90;;;;;;5070509;28;20637;-82
2022/12/06 12:21:34;;;;;;;16.67;7.70;;;4.90;99.90;;;;;;5071192;28;20202;-82
2022/12/06 12:24:01;;;;;;;16.57;7.20;;;4.80;99.90;;;;;;5065393;28;20604;-81
2022/12/06 12:26:40;;;;;;;15.60;7.67;;;5.00;99.90;;;;;;5066908;28;20219;-82
2022/12/06 12:29:19;;;;;;;16.83;7.80;;;4.80;99.90;;;;;;5069777;28;20210;-81
2022/12/06 12:31:53;;;;;;;16.00;6.80;;;4.80;99.90;;;;;;5068752;28;20289;-82
2022/12/06 12:34:21;;;;;;;18.13;8.07;;;4.80;99.90;;;;;;5066654;28;20210;-81
2022/12/06 12:36:51;;;;;;;15.03;7.00;;;4.90;99.90;;;;;;5071811;28;20222;-81
2022/12/06 12:39:32;;;;;;;16.80;8.17;;;4.90;99.90;;;;;;5071977;28;20202;-82
2022/12/06 12:42:00;;;;;;;21.23;10.70;;;4.90;99.90;;;;;;5069457;28;20270;-82
2022/12/06 12:44:30;;;;;;;18.97;9.60;;;4.90;99.90;;;;;;5063399;28;20296;-81
2022/12/06 12:47:00;;;;;;;18.10;8.90;;;4.90;99.90;;;;;;5061769;28;20707;-81
2022/12/06 12:49:31;;;;;;;16.63;8.80;;;4.90;99.90;;;;;;5070388;28;20650;-82
2022/12/06 12:51:59;;;;;;;17.83;10.43;;;5.10;99.90;;;;;;5072710;28;20294;-82
2022/12/06 12:54:30;;;;;;;17.53;9.40;;;5.00;99.90;;;;;;5068467;28;20213;-82
2022/12/06 12:57:01;;;;;;;19.37;11.37;;;4.90;99.90;;;;;;5063744;28;20227;-82
2022/12/06 12:59:32;;;;;;;16.50;8.13;;;5.00;99.90;;;;;;5076724;28;20226;-82
2022/12/06 13:02:12;;;;;;;18.20;10.33;;;5.00;99.90;;;;;;5069681;28;20198;-82
2022/12/06 13:04:42;;;;;;;18.23;8.60;;;5.00;99.90;;;;;;5067278;28;20207;-82
2022/12/06 13:07:21;;;;;;;19.47;11.00;;;5.00;99.90;;;;;;5069291;28;20232;-82
2022/12/06 13:09:54;;;;;;;18.40;10.40;;;5.10;99.90;;;;;;5071609;28;20209;-82
2022/12/06 13:12:28;;;;;;;19.67;9.63;;;5.20;99.90;;;;;;5069572;28;20199;-82
2022/12/06 13:15:00;;;;;;;20.60;10.83;;;5.10;99.90;;;;;;5079102;28;20208;-82
2022/12/06 13:17:32;;;;;;;20.97;10.63;;;5.00;99.90;;;;;;5068968;28;20218;-82
2022/12/06 13:19:59;;;;;;;25.17;11.90;;;5.00;99.90;;;;;;5069832;28;20359;-83
2022/12/06 13:22:29;;;;;;;24.10;14.00;;;5.00;99.90;;;;;;5068300;28;20571;-83
2022/12/06 13:25:02;;;;;;;24.23;12.93;;;5.00;99.90;;;;;;5072091;28;20203;-82
2022/12/06 13:27:34;;;;;;;23.97;11.93;;;5.00;99.90;;;;;;5066118;28;20644;-84